createdAt,value
2022-12-27T00:01:37.595Z,39.10
2022-12-27T00:04:39.836Z,38.00
2022-12-27T00:07:42.718Z,36.87
2022-12-27T00:10:45.007Z,39.47
2022-12-27T00:13:47.595Z,41.88
2022-12-27T00:16:49.803Z,40.45
2022-12-27T00:19:52.153Z,37.15
2022-12-27T00:22:54.418Z,37.35
2022-12-27T00:26:00.485Z,33.60
2022-12-27T00:29:02.937Z,32.33
2022-12-27T00:32:05.539Z,32.78
2022-12-27T00:35:08.066Z,32.05
2022-12-27T00:38:10.255Z,32.47
2022-12-27T00:41:12.799Z,31.03
2022-12-27T00:44:15.126Z,32.47
2022-12-27T00:47:17.316Z,32.17
2022-12-27T00:50:19.622Z,30.50
2022-12-27T00:53:21.976Z,31.42
2022-12-27T00:56:28.433Z,29.23
2022-12-27T00:59:30.824Z,28.25
2022-12-27T01:02:33.221Z,29.05
2022-12-27T01:05:36.543Z,29.60
2022-12-27T01:08:39.067Z,27.52
2022-12-27T01:11:41.788Z,27.67
2022-12-27T01:14:44.064Z,28.17
2022-12-27T01:17:46.233Z,27.75
2022-12-27T01:20:48.452Z,26.40
2022-12-27T01:23:51.091Z,28.80
2022-12-27T01:26:53.326Z,29.77
2022-12-27T01:29:55.586Z,29.42
2022-12-27T01:32:57.855Z,28.30
2022-12-27T01:36:07.739Z,27.95
2022-12-27T01:39:11.479Z,29.55
2022-12-27T01:42:34.702Z,28.27
2022-12-27T01:45:37.199Z,28.98
2022-12-27T01:48:39.806Z,32.55
2022-12-27T01:51:43.463Z,31.35
2022-12-27T01:54:46.446Z,32.77
2022-12-27T01:57:50.012Z,30.17
2022-12-27T02:00:52.730Z,29.92
2022-12-27T02:04:09.246Z,28.75
2022-12-27T02:07:11.580Z,28.92
2022-12-27T02:10:13.961Z,28.80
2022-12-27T02:13:16.828Z,29.40
2022-12-27T02:16:19.803Z,27.92
2022-12-27T02:19:25.102Z,28.15
2022-12-27T02:23:05.047Z,26.20
2022-12-27T02:26:24.586Z,26.02
2022-12-27T02:29:32.884Z,25.70
2022-12-27T02:32:46.108Z,24.92
2022-12-27T02:35:53.551Z,25.25
2022-12-27T02:38:57.596Z,26.77
2022-12-27T02:42:19.122Z,24.95
2022-12-27T02:45:43.566Z,23.40
2022-12-27T02:49:14.717Z,23.15
2022-12-27T02:52:35.651Z,23.05
2022-12-27T02:55:37.987Z,22.45
2022-12-27T02:58:46.268Z,23.70
2022-12-27T03:02:08.751Z,23.10
2022-12-27T03:05:19.209Z,23.08
2022-12-27T03:08:26.915Z,25.00
2022-12-27T03:11:50.349Z,22.10
2022-12-27T03:15:15.716Z,22.98
2022-12-27T03:18:22.780Z,23.23
2022-12-27T03:22:03.818Z,24.27
2022-12-27T03:25:25.677Z,23.92
2022-12-27T03:28:48.216Z,22.73
2022-12-27T03:32:11.941Z,24.35
2022-12-27T03:35:19.518Z,24.57
2022-12-27T03:38:21.739Z,23.83
2022-12-27T03:41:52.790Z,23.55
2022-12-27T03:44:55.159Z,22.80
2022-12-27T03:48:02.649Z,24.90
2022-12-27T03:51:05.493Z,23.53
2022-12-27T03:54:10.831Z,22.35
2022-12-27T03:57:18.331Z,21.65
2022-12-27T04:00:20.573Z,22.63
2022-12-27T04:03:23.019Z,22.88
2022-12-27T04:06:25.390Z,21.57
2022-12-27T04:09:46.168Z,22.30
2022-12-27T04:13:07.044Z,21.75
2022-12-27T04:16:28.023Z,21.70
2022-12-27T04:19:49.059Z,19.85
2022-12-27T04:23:09.903Z,20.07
2022-12-27T04:26:30.698Z,20.02
2022-12-27T04:29:51.620Z,19.83
2022-12-27T04:33:12.237Z,20.67
2022-12-27T04:36:14.388Z,21.07
2022-12-27T04:39:16.593Z,21.47
2022-12-27T04:42:37.204Z,21.42
2022-12-27T04:45:58.318Z,18.67
2022-12-27T04:49:19.339Z,17.25
2022-12-27T04:52:41.267Z,15.90
2022-12-27T04:55:43.431Z,15.40
2022-12-27T04:59:04.198Z,16.20
2022-12-27T05:02:06.657Z,16.90
2022-12-27T05:05:09.724Z,17.52
2022-12-27T05:08:32.425Z,18.45
2022-12-27T05:11:54.381Z,17.03
2022-12-27T05:14:56.605Z,12.32
2022-12-27T05:17:58.768Z,10.43
2022-12-27T05:21:05.298Z,10.32
2022-12-27T05:24:26.021Z,9.80
2022-12-27T05:27:28.368Z,9.70
2022-12-27T05:30:32.665Z,9.02
2022-12-27T05:33:34.925Z,8.60
2022-12-27T05:36:37.180Z,7.05
2022-12-27T05:39:39.486Z,6.25
2022-12-27T05:42:41.655Z,7.17
2022-12-27T05:45:45.011Z,6.63
2022-12-27T05:48:47.912Z,6.63
2022-12-27T05:51:50.224Z,5.35
2022-12-27T05:54:52.378Z,5.20
2022-12-27T05:57:54.539Z,4.10
2022-12-27T06:00:56.905Z,3.92
2022-12-27T06:03:59.353Z,3.70
2022-12-27T06:07:01.531Z,3.47
2022-12-27T06:10:05.503Z,4.10
2022-12-27T06:13:07.940Z,3.40
2022-12-27T06:16:11.699Z,4.35
2022-12-27T06:19:13.999Z,4.25
2022-12-27T06:22:16.253Z,4.47
2022-12-27T06:25:18.562Z,4.97
2022-12-27T06:28:20.864Z,4.00
2022-12-27T06:31:23.457Z,3.10
2022-12-27T06:34:25.754Z,3.08
2022-12-27T06:37:29.714Z,2.80
2022-12-27T06:40:31.952Z,2.80
2022-12-27T06:43:34.390Z,3.00
2022-12-27T06:46:36.732Z,3.25
2022-12-27T06:49:39.078Z,3.10
2022-12-27T06:52:41.374Z,4.03
2022-12-27T06:55:43.532Z,3.65
2022-12-27T06:58:47.048Z,3.63
2022-12-27T07:01:49.405Z,2.95
2022-12-27T07:04:51.750Z,3.80
2022-12-27T07:07:54.841Z,4.10
2022-12-27T07:11:01.138Z,4.50
2022-12-27T07:14:03.764Z,4.30
2022-12-27T07:17:06.085Z,4.05
2022-12-27T07:20:08.569Z,3.67
2022-12-27T07:23:14.387Z,3.40
2022-12-27T07:26:22.135Z,2.40
2022-12-27T07:29:24.534Z,0.80
2022-12-27T07:32:26.723Z,0.73
2022-12-27T07:35:28.923Z,0.73
2022-12-27T07:38:31.360Z,0.80
2022-12-27T07:41:34.149Z,0.95
2022-12-27T07:44:36.665Z,0.60
2022-12-27T07:47:38.953Z,0.70
2022-12-27T07:50:41.265Z,0.90
2022-12-27T07:53:43.972Z,0.70
2022-12-27T07:56:46.272Z,0.60
2022-12-27T07:59:48.708Z,0.60
2022-12-27T08:02:51.098Z,0.60
2022-12-27T08:05:53.524Z,0.60
2022-12-27T08:08:56.261Z,0.40
2022-12-27T08:11:58.465Z,0.47
2022-12-27T08:15:00.666Z,0.63
2022-12-27T08:18:02.923Z,0.40
2022-12-27T08:21:05.241Z,0.70
2022-12-27T08:24:07.524Z,0.60
2022-12-27T08:27:10.029Z,0.60
2022-12-27T08:30:12.506Z,0.70
2022-12-27T08:33:16.407Z,0.63
2022-12-27T08:39:41.078Z,0.90
2022-12-27T08:42:43.332Z,0.70
2022-12-27T08:45:45.812Z,0.90
2022-12-27T08:48:48.811Z,0.80
2022-12-27T08:51:51.052Z,0.73
2022-12-27T08:54:53.239Z,0.90
2022-12-27T08:57:59.386Z,0.82
2022-12-27T09:01:05.878Z,0.40
2022-12-27T09:04:08.074Z,0.55
2022-12-27T09:07:10.412Z,0.50
2022-12-27T09:10:12.729Z,0.40
2022-12-27T09:13:15.044Z,0.60
2022-12-27T09:16:19.214Z,0.90
2022-12-27T09:19:21.465Z,0.60
2022-12-27T09:22:23.785Z,0.80
2022-12-27T09:25:26.212Z,0.43
2022-12-27T09:28:28.869Z,0.60
2022-12-27T09:31:31.115Z,0.40
2022-12-27T09:34:33.317Z,0.30
2022-12-27T09:37:35.539Z,0.50
2022-12-27T09:40:38.145Z,0.30
2022-12-27T09:43:42.381Z,0.32
2022-12-27T09:47:03.399Z,0.27
2022-12-27T09:50:26.094Z,0.30
2022-12-27T09:53:39.825Z,0.38
2022-12-27T09:57:17.656Z,0.43
2022-12-27T10:00:06.942Z,0.32
2022-12-27T10:03:09.338Z,0.40
2022-12-27T10:06:20.001Z,0.30
2022-12-27T10:09:22.326Z,0.40
2022-12-27T10:12:32.088Z,0.43
2022-12-27T10:15:37.431Z,0.40
2022-12-27T10:18:58.363Z,0.30
2022-12-27T10:22:18.966Z,0.60
2022-12-27T10:25:23.466Z,0.50
2022-12-27T10:28:29.832Z,0.40
2022-12-27T10:31:32.556Z,0.50
2022-12-27T10:34:35.002Z,0.43
2022-12-27T10:37:37.324Z,0.40
2022-12-27T10:40:48.799Z,0.30
2022-12-27T10:43:52.288Z,0.43
2022-12-27T10:46:55.787Z,0.65
2022-12-27T10:50:04.250Z,0.23
2022-12-27T10:53:06.564Z,0.40
2022-12-27T10:56:16.927Z,0.40
2022-12-27T10:59:20.869Z,0.50
2022-12-27T11:02:23.204Z,0.38
2022-12-27T11:05:29.463Z,0.40
2022-12-27T11:08:32.203Z,0.50
2022-12-27T11:11:34.576Z,0.40
2022-12-27T11:14:37.360Z,0.50
2022-12-27T11:17:44.451Z,0.60
2022-12-27T11:20:49.005Z,0.53
2022-12-27T11:23:53.721Z,0.68
2022-12-27T11:26:59.323Z,0.57
2022-12-27T11:30:01.820Z,0.63
2022-12-27T11:33:06.107Z,0.52
2022-12-27T11:36:12.375Z,0.57
2022-12-27T11:39:33.459Z,0.60
2022-12-27T11:42:40.731Z,0.55
2022-12-27T11:45:46.946Z,0.63
2022-12-27T11:48:54.072Z,0.60
2022-12-27T11:52:07.405Z,0.57
2022-12-27T11:55:12.585Z,0.50
2022-12-27T11:58:14.764Z,0.70
2022-12-27T12:01:27.783Z,0.60
2022-12-27T12:05:03.041Z,0.60
2022-12-27T12:08:14.149Z,0.60
2022-12-27T12:11:41.092Z,0.70
2022-12-27T12:14:43.790Z,0.57
2022-12-27T12:17:57.975Z,0.60
2022-12-27T12:21:15.554Z,0.50
2022-12-27T12:24:35.826Z,0.50
2022-12-27T12:27:38.168Z,0.50
2022-12-27T12:30:58.966Z,0.57
2022-12-27T12:34:03.905Z,0.40
2022-12-27T12:37:24.964Z,0.50
2022-12-27T12:40:27.249Z,0.40
2022-12-27T12:43:48.091Z,0.65
2022-12-27T12:47:17.358Z,0.50
2022-12-27T12:50:38.537Z,0.45
2022-12-27T12:53:40.778Z,0.32
2022-12-27T12:57:06.500Z,0.40
2022-12-27T13:00:09.471Z,0.70
2022-12-27T13:03:30.148Z,0.65
2022-12-27T13:06:45.432Z,0.50
2022-12-27T13:09:47.570Z,0.60
2022-12-27T13:12:54.877Z,0.30
2022-12-27T13:16:03.100Z,0.50
2022-12-27T13:19:24.347Z,0.40
2022-12-27T13:22:26.571Z,0.50
2022-12-27T13:25:38.308Z,0.50
2022-12-27T13:28:43.588Z,0.50
2022-12-27T13:31:48.873Z,0.38
2022-12-27T13:34:53.907Z,0.57
2022-12-27T13:38:08.375Z,0.45
2022-12-27T13:41:30.883Z,0.50
2022-12-27T13:44:39.246Z,0.37
2022-12-27T13:47:42.285Z,0.40
2022-12-27T13:50:44.846Z,0.57
2022-12-27T13:53:58.788Z,0.60
2022-12-27T13:57:16.963Z,0.70
2022-12-27T14:00:20.244Z,0.60
2022-12-27T14:03:48.839Z,0.63
2022-12-27T14:07:03.619Z,0.63
2022-12-27T14:10:24.490Z,0.60
2022-12-27T14:13:47.096Z,0.75
2022-12-27T14:17:07.688Z,0.50
2022-12-27T14:20:30.182Z,0.68
2022-12-27T14:23:51.307Z,0.55
2022-12-27T14:27:02.670Z,0.50
2022-12-27T14:30:21.546Z,0.70
2022-12-27T14:33:42.575Z,0.83
2022-12-27T14:36:56.048Z,0.60
2022-12-27T14:40:17.109Z,0.70
2022-12-27T14:43:22.648Z,0.70
2022-12-27T14:46:41.530Z,0.77
2022-12-27T14:49:46.935Z,0.80
2022-12-27T14:53:09.415Z,0.77
2022-12-27T14:56:19.620Z,0.82
2022-12-27T14:59:41.263Z,0.80
2022-12-27T15:02:51.348Z,0.80
2022-12-27T15:06:00.202Z,0.50
2022-12-27T15:09:11.096Z,0.80
2022-12-27T15:12:25.732Z,0.70
2022-12-27T15:15:30.733Z,0.55
2022-12-27T15:18:45.174Z,0.40
2022-12-27T15:21:52.255Z,0.57
2022-12-27T15:25:30.158Z,0.98
2022-12-27T15:28:47.986Z,0.77
2022-12-27T15:32:03.901Z,0.70
2022-12-27T15:35:06.117Z,0.80
2022-12-27T15:38:15.408Z,0.60
2022-12-27T15:41:20.438Z,0.50
2022-12-27T15:44:37.361Z,0.90
2022-12-27T15:47:45.053Z,0.90
2022-12-27T15:51:05.703Z,0.90
2022-12-27T15:54:10.838Z,0.70
2022-12-27T15:57:13.179Z,0.80
2022-12-27T16:00:24.445Z,0.88
2022-12-27T16:03:37.574Z,0.95
2022-12-27T16:06:50.203Z,0.80
2022-12-27T16:09:52.549Z,1.00
2022-12-27T16:12:55.303Z,0.70
2022-12-27T16:15:58.056Z,0.93
2022-12-27T16:19:11.939Z,0.95
2022-12-27T16:22:21.975Z,0.70
2022-12-27T16:25:31.413Z,0.90
2022-12-27T16:28:35.300Z,0.50
2022-12-27T16:31:45.144Z,0.90
2022-12-27T16:34:51.599Z,0.80
2022-12-27T16:37:54.635Z,0.73
2022-12-27T16:41:10.036Z,0.63
2022-12-27T16:44:24.520Z,0.70
2022-12-27T16:47:30.691Z,0.80
2022-12-27T16:50:41.313Z,0.60
2022-12-27T16:53:47.567Z,0.52
2022-12-27T16:56:49.892Z,0.80
2022-12-27T17:00:10.989Z,0.68
2022-12-27T17:03:36.422Z,0.85
2022-12-27T17:06:38.621Z,0.60
2022-12-27T17:09:41.622Z,1.20
2022-12-27T17:12:53.556Z,1.13
2022-12-27T17:16:08.039Z,0.93
2022-12-27T17:19:30.634Z,1.10
2022-12-27T17:22:35.837Z,1.02
2022-12-27T17:25:48.665Z,0.93
2022-12-27T17:28:57.751Z,0.97
2022-12-27T17:32:12.267Z,1.05
2022-12-27T17:35:24.438Z,1.02
2022-12-27T17:38:41.410Z,1.20
2022-12-27T17:42:05.010Z,1.02
2022-12-27T17:45:19.260Z,1.10
2022-12-27T17:48:31.656Z,1.00
2022-12-27T17:51:35.305Z,1.17
2022-12-27T17:54:56.300Z,1.00
2022-12-27T17:58:00.846Z,1.00
2022-12-27T18:01:03.219Z,1.27
2022-12-27T18:04:06.135Z,1.00
2022-12-27T18:07:10.720Z,1.10
2022-12-27T18:10:21.576Z,1.55
2022-12-27T18:13:25.459Z,1.50
2022-12-27T18:16:32.968Z,1.53
2022-12-27T18:19:35.421Z,1.83
2022-12-27T18:22:37.789Z,2.08
2022-12-27T18:25:43.130Z,1.67
2022-12-27T18:28:47.877Z,1.90
2022-12-27T18:31:52.441Z,2.00
2022-12-27T18:34:56.615Z,2.03
2022-12-27T18:37:58.851Z,1.77
2022-12-27T18:41:09.853Z,2.33
2022-12-27T18:44:18.867Z,2.20
2022-12-27T18:47:27.297Z,2.33
2022-12-27T18:50:30.616Z,1.67
2022-12-27T18:53:37.943Z,2.38
2022-12-27T18:56:41.720Z,1.50
2022-12-27T18:59:44.046Z,1.63
2022-12-27T19:02:46.647Z,1.50
2022-12-27T19:05:58.263Z,1.85
2022-12-27T19:09:00.658Z,2.22
2022-12-27T19:12:05.156Z,2.55
2022-12-27T19:15:18.264Z,3.07
2022-12-27T19:18:28.095Z,4.20
2022-12-27T19:21:39.811Z,3.83
2022-12-27T19:24:42.195Z,3.55
2022-12-27T19:28:04.752Z,2.78
2022-12-27T19:31:07.105Z,2.97
2022-12-27T19:34:13.660Z,3.60
2022-12-27T19:37:15.991Z,2.90
2022-12-27T19:40:18.454Z,3.60
2022-12-27T19:43:21.047Z,4.43
2022-12-27T19:46:30.440Z,4.67
2022-12-27T19:49:42.072Z,5.60
2022-12-27T19:52:47.500Z,6.82
2022-12-27T19:55:49.941Z,7.22
2022-12-27T19:58:52.298Z,6.75
2022-12-27T20:01:54.762Z,7.10
2022-12-27T20:04:57.181Z,7.07
2022-12-27T20:07:59.494Z,7.07
2022-12-27T20:11:03.025Z,6.30
2022-12-27T20:14:05.370Z,6.30
2022-12-27T20:17:07.727Z,5.97
2022-12-27T20:20:10.519Z,6.60
2022-12-27T20:23:13.321Z,6.93
2022-12-27T20:26:20.340Z,6.28
2022-12-27T20:29:23.353Z,6.60
2022-12-27T20:32:25.810Z,7.00
2022-12-27T20:35:28.656Z,11.53
2022-12-27T20:38:31.206Z,10.73
2022-12-27T20:41:33.625Z,9.77
2022-12-27T20:44:36.044Z,9.90
2022-12-27T20:47:38.301Z,9.37
2022-12-27T20:50:40.906Z,9.77
2022-12-27T20:53:43.610Z,9.60
2022-12-27T20:56:45.856Z,9.45
2022-12-27T20:59:48.127Z,8.38
2022-12-27T21:02:50.617Z,8.93
2022-12-27T21:05:52.969Z,8.87
2022-12-27T21:08:57.803Z,8.68
2022-12-27T21:12:00.388Z,9.02
2022-12-27T21:15:02.819Z,9.07
2022-12-27T21:18:05.283Z,8.60
2022-12-27T21:21:09.382Z,8.80
2022-12-27T21:24:12.285Z,9.52
2022-12-27T21:27:14.602Z,8.75
2022-12-27T21:30:16.946Z,9.50
2022-12-27T21:33:19.175Z,8.90
2022-12-27T21:36:22.725Z,9.77
2022-12-27T21:39:24.888Z,8.73
2022-12-27T21:42:27.040Z,8.70
2022-12-27T21:45:29.264Z,9.23
2022-12-27T21:48:31.516Z,9.27
2022-12-27T21:51:34.535Z,9.00
2022-12-27T21:54:37.023Z,9.82
2022-12-27T21:57:39.293Z,9.88
2022-12-27T22:00:41.552Z,10.68
2022-12-27T22:03:45.376Z,11.03
2022-12-27T22:06:48.132Z,10.60
2022-12-27T22:09:50.486Z,10.65
2022-12-27T22:12:52.697Z,11.70
2022-12-27T22:15:56.072Z,13.25
2022-12-27T22:18:58.800Z,13.33
2022-12-27T22:22:01.004Z,13.67
2022-12-27T22:25:03.201Z,14.32
2022-12-27T22:28:05.463Z,11.90
2022-12-27T22:31:12.440Z,11.25
2022-12-27T22:34:14.865Z,11.90
2022-12-27T22:37:17.185Z,12.50
2022-12-27T22:40:30.793Z,11.35
2022-12-27T22:43:42.610Z,11.02
2022-12-27T22:47:06.678Z,10.93
2022-12-27T22:50:07.356Z,10.43
2022-12-27T22:53:09.629Z,11.53
2022-12-27T22:56:16.224Z,11.23
2022-12-27T22:59:18.458Z,10.77
2022-12-27T23:02:20.739Z,11.27
2022-12-27T23:05:22.978Z,11.63
2022-12-27T23:08:25.552Z,11.87
2022-12-27T23:11:28.937Z,11.35
2022-12-27T23:14:31.284Z,12.05
2022-12-27T23:17:33.474Z,10.40
2022-12-27T23:20:35.765Z,11.90
2022-12-27T23:23:37.953Z,10.07
2022-12-27T23:26:40.557Z,11.50
2022-12-27T23:29:42.737Z,12.13
2022-12-27T23:32:45.045Z,12.73
2022-12-27T23:35:47.284Z,13.10
2022-12-27T23:38:49.851Z,13.03
2022-12-27T23:41:52.063Z,13.48
2022-12-27T23:44:54.333Z,13.85
2022-12-27T23:47:56.496Z,11.57
2022-12-27T23:50:59.200Z,12.87
2022-12-27T23:54:01.509Z,12.30
2022-12-27T23:57:19.978Z,12.90
